• Join FlightAware (Why Join?)
  • Login
  • US Flag GB Flag 
06:40 EDT


 

Airport Tracker/Info


-or-


 

Live Flight TrackerFlight Track Log ✈ EJM685 ✈ 14-Jul-2013 ✈ KSTS - KHTO

Flight Track Log - Related Links

Times and Time Zones

All times are in EDT time to prevent confusion due to time zone crossing. See the EJM685 flight status page for this flight to view local times or setup timezone preferences in your user account.

Time Position Orientation Groundspeed Altitude Reporting Facility
EDT Latitude Longitude Course Direction KTS MPH feet Rate Location/Type
10:53 38.5403 -122.8269 102° East 187 215 1,700  Level Oakland Center
10:54 38.5967 -122.8572 337° Northwest 219 252 4,300 3,000 Climbing Oakland Center
10:55 38.6728 -122.8639 356° North 283 326 7,800 3,240 Climbing Oakland Center
10:56 38.7175 -122.7783 56° Northeast 296 341 10,900 2,580 Climbing Oakland Center
10:57 38.7800 -121.8530 94° East  Level Estimated
10:57 38.7550 -122.6631 67° East 346 398 13,100  Level Oakland Center
10:58 38.8244 -121.6924 102° East  Level Estimated
10:58 38.8042 -122.5150 67° East 381 438 16,600  Level Oakland Center
10:59 38.8500 -122.3836 66° East 399 459 19,400 2,640 Climbing Oakland Center
11:00 38.8967 -122.2469 66° East 417 480 22,000 2,400 Climbing Oakland Center
11:01 38.9453 -122.1033 66° East 433 498 24,300 2,160 Climbing Oakland Center
11:02 38.9975 -121.9514 66° East 455 524 26,500 1,980 Climbing Oakland Center
11:03 39.0506 -121.7925 67° East 473 544 28,400 1,800 Climbing Oakland Center
11:04 39.1056 -121.6275 67° East 492 566 30,200 1,800 Climbing Oakland Center
11:05 39.1622 -121.4589 67° East 502 578 32,100 1,920 Climbing Oakland Center
11:06 39.2178 -121.2886 67° East 509 586 34,100 1,800 Climbing Oakland Center
11:07 39.2750 -121.1161 67° East 516 594 35,800 1,380 Climbing Oakland Center
11:08 39.3319 -120.9431 67° East 521 600 37,000 540 Climbing Oakland Center
11:09 39.3883 -120.7667 67° East 528 608 37,000  Level Oakland Center
11:10 39.4461 -120.5897 67° East 530 610 37,000 600 Level Oakland Center
11:11 39.5011 -120.4161 68° East 523 602 38,300 1,320 Climbing Oakland Center
11:12 39.5567 -120.2428 67° East 522 601 39,700 840 Climbing Oakland Center
11:13 39.6186 -120.0594 66° East 528 608 40,100 540 Climbing Oakland Center
11:14 39.6728 -119.8861 68° East 519 597 40,800 420 Climbing Oakland Center
11:15 39.7258 -119.7122 68° East 516 594 41,000 60 Climbing Oakland Center
11:16 39.7794 -119.5378 68° East 518 596 41,000 540 Level Oakland Center
11:17 39.8336 -119.3636 68° East 516 594 42,100 1,200 Climbing Oakland Center
11:18 39.8861 -119.1925 68° East 509 586 43,500 1,320 Climbing Oakland Center
11:19 39.9369 -119.0247 68° East 498 573 44,900 720 Climbing Oakland Center
11:20 39.9875 -118.8600 68° East 489 563 45,000  Climbing Oakland Center
11:21 40.0369 -118.6900 69° East 494 568 45,000  Level Oakland Center
11:22 40.0875 -118.5192 69° East 499 574 45,000  Level Oakland Center
11:23 40.1475 -118.3172 69° East 496 571 45,000  Level Oakland Center
11:24 40.1978 -118.1483 69° East 495 570 45,000  Level Oakland Center
11:25 40.2367 -117.9761 73° East 494 568 45,000  Level Oakland Center
11:26 40.2719 -117.8236 73° East 495 570 45,000  Level Oakland Center
11:27 40.3150 -117.6317 74° East 493 567 45,000  Level Oakland Center
11:28 40.3519 -117.4686 73° East 490 564 45,000  Level Salt Lake Center
11:29 40.3897 -117.3039 73° East 491 565 45,000  Level Salt Lake Center
11:30 40.4267 -117.1394 74° East 489 563 45,000  Level Salt Lake Center
11:31 40.4686 -116.9456 74° East 493 567 45,000  Level Salt Lake Center
11:32 40.5081 -116.7683 74° East 497 572 45,000  Level Salt Lake Center
11:33 40.5442 -116.6000 74° East 497 572 45,000  Level Salt Lake Center
11:34 40.5847 -116.4067 75° East 493 567 45,000  Level Salt Lake Center
11:35 40.6194 -116.2403 75° East 492 566 45,000  Level Salt Lake Center
11:36 40.6608 -116.0456 74° East 493 567 45,000  Level Salt Lake Center
11:37 40.6961 -115.8789 74° East 493 567 45,000  Level Salt Lake Center
11:38 40.7356 -115.6853 75° East 491 565 45,000  Level Salt Lake Center
11:39 40.7706 -115.5175 75° East 494 568 45,000  Level Salt Lake Center
11:40 40.8089 -115.3228 75° East 493 567 45,000  Level Salt Lake Center
11:41 40.8436 -115.1558 75° East 492 566 45,000  Level Salt Lake Center
11:43 40.8817 -114.9606 75° East 492 566 45,000  Level Salt Lake Center
11:44 40.9156 -114.7947 75° East 490 564 45,000  Level Salt Lake Center
11:45 40.9517 -114.6292 74° East 490 564 45,000  Level Salt Lake Center
11:46 40.9911 -114.4239 76° East 488 562 45,000  Level Salt Lake Center
11:47 41.0244 -114.2503 76° East 488 562 45,000  Level Salt Lake Center
11:48 41.0569 -114.0758 76° East 489 563 45,000  Level Salt Lake Center
11:49 41.0908 -113.9025 75° East 488 562 45,000  Level Salt Lake Center
11:50 41.1233 -113.7289 76° East 487 560 45,000  Level Salt Lake Center
11:51 41.1553 -113.5547 76° East 487 560 45,000  Level Salt Lake Center
11:52 41.1939 -113.3464 76° East 485 558 45,000  Level Salt Lake Center
11:53 41.2258 -113.1722 76° East 486 559 45,000  Level Salt Lake Center
11:54 41.2569 -112.9981 77° East 485 558 45,000  Level Salt Lake Center
11:55 41.2886 -112.8244 76° East 485 558 45,000  Level Salt Lake Center
11:56 41.3192 -112.6503 77° East 484 557 45,000  Level Salt Lake Center
11:57 41.3508 -112.4767 76° East 483 556 45,000  Level Salt Lake Center
11:58 41.3808 -112.3011 77° East 485 558 45,000  Level Salt Lake Center
11:59 41.4172 -112.0903 77° East 485 558 45,000  Level Salt Lake Center
12:00 41.4478 -111.9158 77° East 481 554 45,000  Level Salt Lake Center
12:01 41.4778 -111.7406 77° East 482 555 45,000  Level Salt Lake Center
12:02 41.5067 -111.5653 78° East 481 554 45,000  Level Salt Lake Center
12:03 41.5350 -111.3900 78° East 482 555 45,000  Level Salt Lake Center
12:04 41.5633 -111.2156 78° East 478 550 45,000  Level Salt Lake Center
12:05 41.5922 -111.0419 77° East 478 550 45,000  Level Salt Lake Center
12:06 41.6231 -110.8433 78° East 474 545 45,000  Level Salt Lake Center
12:07 41.6506 -110.6775 77° East 476 548 45,000  Level Salt Lake Center
12:08 41.6811 -110.4853 78° East 474 545 45,000  Level Salt Lake Center
12:09 41.7067 -110.3194 78° East 475 547 45,000  Level Salt Lake Center
12:10 41.7367 -110.1244 78° East 480 552 45,000  Level Salt Lake Center
12:11 41.7631 -109.9544 78° East 485 558 45,000  Level Salt Lake Center
12:12 41.7933 -109.7542 78° East 490 564 45,000  Level Salt Lake Center
12:14 41.8189 -109.5817 79° East 492 566 45,000  Level Salt Lake Center
12:15 41.8489 -109.3778 79° East 496 571 45,000  Level Salt Lake Center
12:16 41.8750 -109.2022 79° East 498 573 45,000  Level Salt Lake Center
12:17 41.8992 -109.0269 79° East 496 571 45,000  Level Salt Lake Center
12:18 41.9300 -108.8228 78° East 497 572 45,000  Level Salt Lake Center
12:19 41.9547 -108.6486 79° East 495 570 45,000  Level Salt Lake Center
12:20 41.9833 -108.4431 79° East 498 573 45,000  Level Salt Lake Center
12:21 42.0069 -108.2681 80° East 497 572 45,000  Level Salt Lake Center
12:22 42.0325 -108.0636 80° East 496 571 45,000  Level Salt Lake Center
12:23 42.0556 -107.8856 80° East 505 581 45,000  Level Salt Lake Center
12:24 42.0792 -107.7100 80° East 499 574 45,000  Level Denver Center
12:25 42.1014 -107.5383 80° East 489 563 45,000  Level Denver Center
12:26 42.1272 -107.3361 80° East 489 563 45,000  Level Denver Center
12:27 42.1481 -107.1642 81° East 487 560 45,100 240 Climbing Denver Center
12:28 42.1733 -106.9619 80° East 490 564 45,600 480 Climbing Denver Center
12:29 42.1958 -106.7883 80° East 492 566 46,100 420 Climbing Denver Center
12:30 42.2203 -106.5861 81° East 489 563 46,500 180 Climbing Denver Center
12:31 42.2372 -106.4428 81° East 492 566 46,500  Level Denver Center
12:32 42.2650 -106.2064 81° East 498 573 46,500  Level Denver Center
12:33 42.2850 -106.0294 81° East 498 573 46,500  Level Denver Center
12:34 42.3053 -105.8539 81° East 495 570 46,500 60 Level Denver Center
12:35 42.3289 -105.6531 81° East 487 560 46,700 180 Climbing Denver Center
12:36 42.3472 -105.4828 82° East 480 552 46,900 120 Climbing Denver Center
12:37 42.3681 -105.2903 82° East 463 533 47,000  Climbing Denver Center
12:38 42.3856 -105.1258 82° East 463 533 47,000  Level Denver Center
12:39 42.4064 -104.9356 82° East 461 531 47,000  Level Denver Center
12:40 42.4264 -104.7142 83° East 468 539 47,000  Level Denver Center
12:42 42.4403 -104.5439 84° East 483 556 47,000 -60 Level Denver Center
12:43 42.4647 -104.3475 80° East 483 556 46,900  Descending Denver Center
12:44 42.4822 -104.1786 82° East 479 551 47,000  Climbing Denver Center
12:45 42.5019 -103.9797 82° East 478 550 47,000  Level Denver Center
12:46 42.5192 -103.8083 82° East 481 554 47,000  Level Denver Center
12:47 42.5378 -103.6083 83° East 480 552 47,000  Level Denver Center
12:48 42.5550 -103.4356 82° East 483 556 47,000  Level Denver Center
12:49 42.5728 -103.2328 83° East 488 562 47,000  Level Denver Center
12:50 42.5894 -103.0619 82° East 481 554 47,000  Level Denver Center
12:51 42.6044 -102.8650 84° East 475 547 47,000  Level Denver Center
12:52 42.6164 -102.7231 83° East 477 549 47,000  Level Denver Center
12:53 42.6353 -102.4972 83° East 473 544 47,000  Level Denver Center
12:54 42.6489 -102.3308 84° East 466 536 47,000  Level Denver Center
12:55 42.6650 -102.1367 83° East 464 534 47,000  Level Denver Center
12:56 42.6789 -101.9675 84° East 471 542 47,000  Level Denver Center
12:57 42.6939 -101.7942 83° East 472 543 47,000  Level Denver Center
12:58 42.7078 -101.5989 84° East 467 537 47,000  Level Denver Center
12:59 42.7206 -101.4325 84° East 464 534 47,000  Level Denver Center
13:00 42.7353 -101.2375 84° East 464 534 47,000  Level Denver Center
13:01 42.7475 -101.0692 84° East 466 536 47,000  Level Denver Center
13:02 42.7592 -100.8908 85° East 461 531 47,000  Level Denver Center
13:03 42.7717 -100.7150 84° East 467 537 47,000  Level Denver Center
13:04 42.7797 -100.5983 85° East 463 533 47,000  Level Minneapolis Center
13:05 42.7908 -100.4233 85° East 463 533 47,000  Level Minneapolis Center
13:06 42.8011 -100.2667 85° East 463 533 47,000  Level Minneapolis Center
13:07 42.8139 -100.0569 85° East 464 534 47,000  Level Minneapolis Center
13:08 42.8233 -99.8983 85° East 463 533 47,000  Level Minneapolis Center
13:09 42.8353 -99.7050 85° East 468 539 47,000  Level Minneapolis Center
13:10 42.8450 -99.5414 85° East 470 541 47,000 -60 Level Minneapolis Center
13:11 42.8578 -99.3303 85° East 466 536 46,900  Descending Minneapolis Center
13:12 42.8667 -99.1539 86° East 465 535 47,000  Climbing Minneapolis Center
13:13 42.8758 -98.9808 86° East 460 529 47,000  Level Minneapolis Center
13:14 42.8836 -98.8181 86° East 458 527 47,000  Level Minneapolis Center
13:15 42.8936 -98.6089 86° East 462 532 47,000  Level Minneapolis Center
13:16 42.9039 -98.4372 85° East 459 528 47,000  Level Minneapolis Center
13:17 42.9114 -98.2639 87° East 459 528 47,000  Level Minneapolis Center
13:18 42.9192 -98.0897 86° East 461 531 47,000  Level Minneapolis Center
13:19 42.9269 -97.9153 86° East 463 533 47,000  Level Minneapolis Center
13:20 42.9344 -97.7456 86° East 453 521 47,000  Level Minneapolis Center
13:21 42.9428 -97.5436 87° East 448 516 47,000  Level Minneapolis Center
13:22 42.9497 -97.3756 87° East 446 513 47,000  Level Minneapolis Center
13:23 42.9553 -97.2050 87° East 450 518 47,000  Level Minneapolis Center
13:24 42.9606 -97.0344 88° East 453 521 47,000  Level Minneapolis Center
13:26 42.9661 -96.8656 87° East 450 518 47,000  Level Minneapolis Center
13:27 42.9731 -96.6664 87° East 444 511 47,000  Level Minneapolis Center
13:28 42.9792 -96.5006 87° East 441 507 47,000  Level Minneapolis Center
13:29 42.9836 -96.3331 88° East 442 509 47,000  Level Minneapolis Center
13:30 42.9886 -96.1672 88° East 441 507 47,000  Level Minneapolis Center
13:31 42.9933 -96.0011 88° East 441 507 47,000  Level Minneapolis Center
13:32 42.9972 -95.8356 88° East 440 506 47,000  Level Minneapolis Center
13:33 43.0017 -95.6347 88° East 443 510 47,000  Level Minneapolis Center
13:34 43.0058 -95.4681 88° East 441 507 47,000  Level Minneapolis Center
13:35 43.0089 -95.3022 89° East 442 509 47,000  Level Minneapolis Center
13:36 43.0125 -95.1386 88° East 436 502 47,000  Level Minneapolis Center
13:37 43.0158 -94.9728 88° East 439 505 47,000  Level Minneapolis Center
13:38 43.0189 -94.7733 89° East 440 506 47,000  Level Minneapolis Center
13:39 43.0222 -94.6075 88° East 439 505 47,000  Level Minneapolis Center
13:40 43.0228 -94.4425 90° East 437 503 47,000  Level Minneapolis Center
13:41 43.0253 -94.2769 89° East 437 503 47,000  Level Minneapolis Center
13:42 43.0264 -94.0989 89° East 438 504 47,000  Level Minneapolis Center
13:43 43.0281 -93.9328 89° East 440 506 47,000  Level Minneapolis Center
13:44 43.0283 -93.7656 90° East 443 510 47,000  Level Minneapolis Center
13:45 43.0306 -93.5975 89° East 446 513 47,000  Level Minneapolis Center
13:46 43.0303 -93.3961 90° East 445 512 47,000 -60 Level Minneapolis Center
13:47 43.0319 -93.2275 89° East 447 514 46,900  Descending Minneapolis Center
13:48 43.0317 -93.0608 90° East 444 511 47,000  Climbing Minneapolis Center
13:49 43.0317 -92.8953 90° East 441 507 47,000 -60 Level Minneapolis Center
13:50 43.0314 -92.7281 90° East 443 510 46,900  Descending Minneapolis Center
13:51 43.0311 -92.5281 90° East 443 510 47,000  Climbing Minneapolis Center
13:52 43.0292 -92.3619 91° East 442 509 47,000 -60 Level Chicago Center
13:53 43.0286 -92.1944 90° East 443 510 46,900  Descending Chicago Center
13:54 43.0297 -92.0236 89° East 448 516 47,000  Climbing Minneapolis Center
13:56 43.0292 -91.8519 90° East 450 518 47,000  Level Minneapolis Center
13:57 43.0269 -91.6800 91° East 450 518 47,000  Level Minneapolis Center
13:58 43.0247 -91.4736 91° East 451 519 47,000  Level Minneapolis Center
13:59 43.0214 -91.3036 91° East 453 521 47,000  Level Chicago Center
14:00 43.0186 -91.1317 91° East 455 524 47,000  Level Chicago Center
14:01 43.0158 -90.9625 91° East 454 522 47,000 -60 Level Chicago Center
14:02 43.0128 -90.7922 91° East 452 520 46,900  Descending Chicago Center
14:03 43.0092 -90.6225 92° East 451 519 47,000  Climbing Chicago Center
14:04 43.0039 -90.4197 92° East 448 516 47,000  Level Chicago Center
14:05 43.0008 -90.2500 91° East 451 519 47,000  Level Chicago Center
14:06 42.9947 -90.0803 93° East 454 522 47,000  Level Chicago Center
14:07 42.9886 -89.8917 92° East 442 509 47,000  Level Chicago Center
14:08 42.9842 -89.7231 92° East 441 507 47,000  Level Chicago Center
14:09 42.9800 -89.5556 92° East 442 509 47,000  Level Chicago Center
14:10 42.9744 -89.3864 93° East 446 513 47,000  Level Chicago Center
14:11 42.9683 -89.2200 93° East 442 509 47,000  Level Chicago Center
14:12 42.9625 -89.0219 92° East 445 512 47,000  Level Chicago Center
14:13 42.9558 -88.8544 93° East 443 510 47,000  Level Chicago Center
14:14 42.9506 -88.6875 92° East 441 507 47,000  Level Chicago Center
14:15 42.9439 -88.5181 93° East 446 513 47,000  Level Chicago Center
14:16 42.9361 -88.3511 94° East 444 511 47,000  Level Chicago Center
14:17 42.9294 -88.1558 93° East 444 511 47,000  Level Chicago Center
14:18 42.9225 -87.9869 93° East 446 513 47,000  Level Chicago Center
14:19 42.9158 -87.8192 93° East 445 512 47,000  Level Chicago Center
14:20 42.9078 -87.6503 94° East 446 513 47,000  Level Chicago Center
14:21 42.8983 -87.4539 94° East 448 516 47,000  Level Chicago Center
14:22 42.8897 -87.2850 94° East 445 512 47,000  Level Chicago Center
14:23 42.8806 -87.1167 94° East 447 514 47,000  Level Chicago Center
14:24 42.8731 -86.9506 93° East 443 510 47,000 -60 Level Chicago Center
14:26 42.8639 -86.7814 94° East 448 516 46,900  Descending Chicago Center
14:27 42.8544 -86.6133 94° East 447 514 47,000  Climbing Chicago Center
14:28 42.8447 -86.4450 94° East 448 516 47,000  Level Chicago Center
14:29 42.8322 -86.2461 95° East 446 513 47,000  Level Chicago Center
14:30 42.8217 -86.0822 95° East 443 510 47,000  Level Chicago Center
14:31 42.8122 -85.9178 94° East 446 513 47,000 -60 Level Chicago Center
14:32 42.8025 -85.7531 95° East 444 511 46,900  Descending Chicago Center
14:33 42.7906 -85.5556 95° East 442 509 47,000  Climbing Chicago Center
14:34 42.7806 -85.3906 95° East 440 506 47,000  Level Chicago Center
14:35 42.7711 -85.2286 94° East 434 499 47,000  Level Chicago Center
14:36 42.7597 -85.0658 95° East 433 498 47,000  Level Chicago Center
14:37 42.7489 -84.9017 95° East 436 502 47,000  Level Chicago Center
14:38 42.7336 -84.7058 96° East 437 503 47,000  Level Chicago Center
14:39 42.7225 -84.5417 95° East 437 503 47,000  Level Chicago Center
14:40 42.7097 -84.3767 96° East 440 506 47,000  Level Chicago Center
14:41 42.6981 -84.2125 95° East 438 504 47,000  Level Chicago Center
14:42 42.6847 -84.0497 96° East 435 501 47,000  Level Chicago Center
14:43 42.6711 -83.8931 97° East 433 498 47,000  Level Cleveland Center
14:44 42.6592 -83.7258 95° East 433 498 47,000  Level Cleveland Center
14:45 42.6467 -83.5614 96° East 439 505 47,000  Level Cleveland Center
14:46 42.6322 -83.3883 96° East 445 512 47,000  Level Cleveland Center
14:47 42.6175 -83.2214 97° East 445 512 47,000  Level Cleveland Center
14:48 42.6003 -83.0569 98° East 445 512 47,000  Level Cleveland Center
14:49 42.5872 -82.8900 96° East 445 512 47,000  Level Cleveland Center
14:50 42.5717 -82.7258 97° East 445 512 47,000 -60 Level Cleveland Center
14:51 42.5578 -82.5592 96° East 445 512 46,900  Descending Cleveland Center
14:52 42.5397 -82.3922 98° East 445 512 47,000  Climbing Cleveland Center
14:53 42.5422 -82.2289 89° East 445 512 47,000  Level Cleveland Center
14:54 42.5528 -82.0628 85° East 440 506 47,000  Level Cleveland Center
14:55 42.5631 -81.8939 85° East 440 506 47,000  Level Cleveland Center
14:56 42.5753 -81.7278 84° East 440 506 47,000  Level Cleveland Center
14:57 42.5853 -81.5617 85° East 440 506 47,000  Level Cleveland Center
14:58 42.5928 -81.3956 86° East 445 512 47,000  Level Cleveland Center
14:59 42.6022 -81.2292 86° East 440 506 47,000  Level Cleveland Center
15:00 42.6114 -81.0600 86° East 446 513 47,000  Level Cleveland Center
15:01 42.6181 -80.9075 87° East 446 513 47,000  Level Cleveland Center
15:02 42.6269 -80.7411 86° East 441 507 47,000  Level Cleveland Center
15:03 42.6331 -80.5692 87° East 441 507 47,000  Level Cleveland Center
15:04 42.6436 -80.3997 85° East 446 513 47,000  Level Cleveland Center
15:05 42.6494 -80.2303 87° East 445 512 47,000  Level Cleveland Center
15:06 42.6569 -80.0469 87° East 445 512 47,000  Level Cleveland Center
15:07 42.6644 -79.8972 86° East 445 512 47,000  Level Cleveland Center
15:08 42.6739 -79.7247 86° East 445 512 47,000  Level Cleveland Center
15:09 42.6808 -79.5581 87° East 445 512 47,000 -60 Level Cleveland Center
15:10 42.6833 -79.3886 89° East 445 512 46,900  Descending Cleveland Center
15:11 42.6897 -79.2217 87° East 445 512 47,000  Climbing Cleveland Center
15:12 42.6961 -79.0519 87° East 445 512 47,000  Level Cleveland Center
15:13 42.7019 -78.8825 87° East 445 512 47,000  Level Cleveland Center
15:14 42.7056 -78.7156 88° East 445 512 47,000  Level Cleveland Center
15:15 42.7111 -78.5403 87° East 445 512 47,000  Level Cleveland Center
15:16 42.7164 -78.3733 87° East 445 512 47,000  Level Cleveland Center
15:17 42.7211 -78.2008 88° East 445 512 47,000  Level Cleveland Center
15:18 42.7239 -78.0339 89° East 445 512 47,000  Level Cleveland Center
15:19 42.7306 -77.8669 87° East 445 512 47,000 -60 Level Cleveland Center
15:20 42.7300 -77.6747 90° East 445 512 46,900  Descending Cleveland Center
15:21 42.7378 -77.4933 87° East 466 536 47,000  Climbing Cleveland Center
15:22 42.7392 -77.3178 89° East 466 536 47,000  Level Cleveland Center
15:24 42.7447 -76.9983 89° East 447 514 47,000  Level Boston Center
15:25 42.7472 -76.8258 89° East 447 514 47,000  Level Boston Center
15:26 42.7472 -76.6592 90° East 447 514 47,000 -60 Level Boston Center
15:27 42.7494 -76.4867 89° East 447 514 46,900 -60 Descending Boston Center
15:28 42.7325 -76.3158 98° East 447 514 46,900 -60 Level Boston Center
15:29 42.7103 -76.1647 101° East 452 520 46,800 -600 Descending Boston Center
15:30 42.6867 -75.9964 101° East 452 520 45,700 -1,140 Descending Boston Center
15:31 42.6647 -75.8286 100° East 452 520 44,600 -1,140 Descending Boston Center
15:32 42.6425 -75.6581 100° East 452 520 43,500 -1,260 Descending Boston Center
15:33 42.6200 -75.4903 100° East 452 520 42,100 -1,680 Descending Boston Center
15:34 42.5972 -75.3256 101° East 452 520 40,200 -1,980 Descending Boston Center
15:35 42.5722 -75.1581 101° East 452 520 38,200 -2,040 Descending Boston Center
15:36 42.5469 -74.9850 101° East 452 520 36,200 -2,100 Descending Boston Center
15:37 42.5214 -74.8122 101° East 458 527 34,100 -2,100 Descending Boston Center
15:38 42.4981 -74.6367 100° East 463 533 32,000 -2,100 Descending Boston Center
15:39 42.4700 -74.4611 102° East 470 541 29,900 -1,920 Descending Boston Center
15:40 42.4478 -74.2917 100° East 470 541 27,900 -2,100 Descending Boston Center
15:41 42.4156 -74.0767 101° East 470 541 25,300 -1,980 Descending Boston Center
15:42 42.3889 -73.9019 102° East 470 541 24,000 -1,140 Descending Boston Center
15:43 42.3639 -73.7325 101° East 465 535 23,100 -1,200 Descending Boston Center
15:44 42.3364 -73.5664 103° East 459 528 21,600 -1,140 Descending Boston Center
15:45 42.3111 -73.3778 100° East 459 528 20,900 -540 Descending Boston Center
15:46 42.2850 -73.2428 105° East 429 494 20,600 -660 Descending Boston Center
15:47 42.2256 -73.0822 117° Southeast 429 494 19,600 -720 Descending Boston Center
15:48 42.1386 -72.9636 135° Southeast 435 501 19,100 -300 Descending Boston Center
15:49 42.0350 -72.8203 134° Southeast 441 507 19,000 -60 Descending Boston Center
15:50 41.9478 -72.6997 134° Southeast 441 507 19,000 -300 Level Boston Center
15:51 41.8750 -72.5711 127° Southeast 441 507 18,500 -1,260 Descending Boston Center
15:52 41.8128 -72.4622 127° Southeast 411 473 16,700 -2,340 Descending Boston Center
15:53 41.7586 -72.3650 127° Southeast 403 464 14,600 -2,400 Descending Boston Center
15:54 41.6917 -72.2456 127° Southeast 388 447 12,300 -1,920 Descending Boston Center
15:55 41.6353 -72.1431 126° Southeast 385 443 11,000 -780 Descending Boston Center
15:56 41.5597 -72.0433 135° Southeast 358 412 10,900 -780 Descending Boston Center
15:57 41.4722 -72.0328 175° South 307 353 9,500 -1,320 Descending Boston Center
15:58 41.3911 -72.0444 186° South 282 325 8,300 -1,140 Descending Boston Center
15:59 41.3225 -72.0808 202° Southwest 289 333 7,300 -1,140 Descending Boston Center
16:00 41.2433 -72.1228 202° Southwest 277 319 6,100 -600 Descending Boston Center
16:01 41.1497 -72.1783 204° Southwest 291 335 5,900 -480 Descending Boston Center
16:02 41.0811 -72.2225 206° Southwest 291 335 5,100 -900 Descending Boston Center
16:03 41.0144 -72.2475 196° South 272 313 4,200 -840 Descending Boston Center
16:04 40.9872 -72.1897 122° Southeast 213 245 3,500 -720 Descending Boston Center
16:05 40.9892 -72.1128 88° East 153 176 2,800 -960 Descending Boston Center
16:06 40.9619 -72.1047 167° South 142 163 1,600 -780 Descending Boston Center
16:07 40.9581 -72.1625 265° West 69 79 1,300 -480 Descending Boston Center
16:08 40.9581 -72.2036 270° West 104 120 700 420 Descending Boston Center
16:10 41.0164 -72.2969 310° West 120 138 2,600 660 Climbing Boston Center
16:11 41.0228 -72.3356 282° West 146 168 3,000 120 Climbing Boston Center
16:13 41.0353 -72.3906 287° West 129 148 3,000  Level Boston Center
16:14 41.0458 -72.4483 284° West 129 148 3,000  Level Boston Center